createdAt,value
2023-01-17T00:04:43.103Z,96933.78
2023-01-17T00:09:53.800Z,96921.75
2023-01-17T00:14:56.646Z,96917.88
2023-01-17T00:20:19.320Z,96914.00
2023-01-17T00:25:45.699Z,96915.63
2023-01-17T00:30:47.278Z,96923.56
2023-01-17T00:35:49.273Z,96922.53
2023-01-17T00:40:50.918Z,96920.47
2023-01-17T00:46:11.847Z,96923.72
2023-01-17T00:51:31.838Z,96931.91
2023-01-17T00:56:51.998Z,96926.63
2023-01-17T01:02:12.063Z,96930.91
2023-01-17T01:07:32.325Z,96931.13
2023-01-17T01:12:52.589Z,96939.25
2023-01-17T01:18:12.553Z,96930.50
2023-01-17T01:23:32.704Z,96933.94
2023-01-17T01:28:52.778Z,96937.28
2023-01-17T01:33:54.512Z,96942.59
2023-01-17T01:38:56.819Z,96931.56
2023-01-17T01:43:58.470Z,96936.06
2023-01-17T01:49:05.940Z,96935.03
2023-01-17T01:54:15.518Z,96929.50
2023-01-17T01:59:20.160Z,96922.16
2023-01-17T02:04:22.455Z,96931.16
2023-01-17T02:09:24.396Z,96928.47
2023-01-17T02:14:26.009Z,96931.56
2023-01-17T02:19:52.978Z,96939.09
2023-01-17T02:25:10.991Z,96932.34
2023-01-17T02:30:27.608Z,96932.34
2023-01-17T02:35:40.386Z,96930.69
2023-01-17T02:40:48.481Z,96941.53
2023-01-17T02:45:50.480Z,96949.50
2023-01-17T02:51:10.351Z,96953.56
2023-01-17T02:56:32.485Z,96950.28
2023-01-17T03:02:04.395Z,96955.81
2023-01-17T03:07:11.586Z,96972.16
2023-01-17T03:12:13.626Z,96971.94
2023-01-17T03:17:15.230Z,96981.97
2023-01-17T03:22:17.951Z,96981.75
2023-01-17T03:27:19.542Z,96995.69
2023-01-17T03:32:21.197Z,96993.63
2023-01-17T03:37:22.992Z,97004.69
2023-01-17T03:42:24.542Z,97024.28
2023-01-17T03:47:26.210Z,97014.22
2023-01-17T03:52:27.854Z,97022.25
2023-01-17T03:57:29.589Z,97025.53
2023-01-17T04:02:31.195Z,97031.69
2023-01-17T04:07:32.781Z,97028.44
2023-01-17T04:12:34.361Z,97030.84
2023-01-17T04:17:35.986Z,97048.84
2023-01-17T04:22:37.730Z,97043.13
2023-01-17T04:27:39.314Z,97057.06
2023-01-17T04:32:40.889Z,97049.47
2023-01-17T04:37:42.536Z,97063.78
2023-01-17T04:42:47.864Z,97069.28
2023-01-17T04:47:49.428Z,97090.56
2023-01-17T04:52:50.983Z,97107.13
2023-01-17T04:57:52.704Z,97110.59
2023-01-17T05:02:54.377Z,97110.22
2023-01-17T05:07:56.709Z,97115.09
2023-01-17T05:12:59.354Z,97135.56
2023-01-17T05:18:00.917Z,97142.50
2023-01-17T05:23:02.606Z,97143.72
2023-01-17T05:28:04.585Z,97142.91
2023-01-17T05:33:06.274Z,97143.94
2023-01-17T05:38:07.909Z,97147.03
2023-01-17T05:43:09.623Z,97146.59
2023-01-17T05:48:11.199Z,97157.84
2023-01-17T05:53:14.394Z,97153.97
2023-01-17T05:58:18.277Z,97154.38
2023-01-17T06:03:19.941Z,97162.97
2023-01-17T06:08:23.405Z,97173.19
2023-01-17T06:13:25.010Z,97180.34
2023-01-17T06:18:26.639Z,97181.34
2023-01-17T06:23:28.426Z,97186.66
2023-01-17T06:28:30.294Z,97195.69
2023-01-17T06:33:31.890Z,97194.66
2023-01-17T06:38:33.534Z,97195.44
2023-01-17T06:43:35.308Z,97203.41
2023-01-17T06:48:36.887Z,97210.91
2023-01-17T06:53:38.687Z,97212.38
2023-01-17T06:58:40.308Z,97210.72
2023-01-17T07:03:42.125Z,97241.44
2023-01-17T07:08:43.691Z,97254.75
2023-01-17T07:13:45.370Z,97254.09
2023-01-17T07:18:47.019Z,97267.56
2023-01-17T07:23:48.906Z,97271.28
2023-01-17T07:28:50.472Z,97267.75
2023-01-17T07:33:52.037Z,97267.06
2023-01-17T07:38:53.840Z,97260.94
2023-01-17T07:43:56.408Z,97248.56
2023-01-17T07:48:58.049Z,97256.34
2023-01-17T07:53:59.608Z,97273.34
2023-01-17T07:59:01.415Z,97282.31
2023-01-17T08:04:03.081Z,97292.09
2023-01-17T08:09:04.703Z,97286.84
2023-01-17T08:14:06.305Z,97289.69
2023-01-17T08:19:07.867Z,97297.66
2023-01-17T08:24:15.588Z,97293.50
2023-01-17T08:29:18.052Z,97313.66
2023-01-17T08:34:19.771Z,97328.06
2023-01-17T08:39:21.808Z,97326.84
2023-01-17T08:44:23.472Z,97329.88
2023-01-17T08:49:25.727Z,97334.34
2023-01-17T08:54:27.299Z,97342.22
2023-01-17T08:59:28.841Z,97345.75
2023-01-17T09:04:30.710Z,97352.31
2023-01-17T09:09:32.465Z,97357.50
2023-01-17T09:14:34.836Z,97372.19
2023-01-17T09:19:38.899Z,97379.06
2023-01-17T09:24:40.491Z,97385.13
2023-01-17T09:29:42.070Z,97388.75
2023-01-17T09:34:44.309Z,97391.75
2023-01-17T09:39:46.507Z,97386.63
2023-01-17T09:44:51.611Z,97397.03
2023-01-17T09:49:57.753Z,97413.47
2023-01-17T09:54:59.494Z,97414.91
2023-01-17T10:00:34.141Z,97413.44
2023-01-17T10:06:09.608Z,97422.47
2023-01-17T10:11:23.017Z,97427.66
2023-01-17T10:16:28.004Z,97420.81
2023-01-17T10:21:59.160Z,97426.13
2023-01-17T10:27:01.907Z,97424.16
2023-01-17T10:32:03.527Z,97432.41
2023-01-17T10:37:18.089Z,97427.59
2023-01-17T10:42:25.992Z,97448.19
2023-01-17T10:47:29.841Z,97450.72
2023-01-17T10:52:52.799Z,97452.69
2023-01-17T10:57:55.275Z,97454.94
2023-01-17T11:02:57.197Z,97456.53
2023-01-17T11:08:04.261Z,97468.31
2023-01-17T11:13:37.964Z,97465.34
2023-01-17T11:18:39.995Z,97460.97
2023-01-17T11:23:44.206Z,97452.00
2023-01-17T11:28:45.754Z,97442.47
2023-01-17T11:33:53.885Z,97451.81
2023-01-17T11:39:04.503Z,97449.16
2023-01-17T11:44:30.409Z,97448.09
2023-01-17T11:49:32.001Z,97455.84
2023-01-17T11:54:39.192Z,97444.91
2023-01-17T11:59:44.919Z,97446.16
2023-01-17T12:05:10.248Z,97450.56
2023-01-17T12:10:21.284Z,97441.91
2023-01-17T12:15:41.223Z,97446.47
2023-01-17T12:20:51.945Z,97457.97
2023-01-17T12:26:30.916Z,97451.84
2023-01-17T12:32:01.814Z,97448.97
2023-01-17T12:37:29.540Z,97440.34
2023-01-17T12:42:37.080Z,97444.06
2023-01-17T12:47:44.659Z,97445.19
2023-01-17T12:52:59.100Z,97449.16
2023-01-17T12:58:02.531Z,97444.13
2023-01-17T13:03:11.954Z,97446.53
2023-01-17T13:08:18.002Z,97446.44
2023-01-17T13:13:25.916Z,97455.16
2023-01-17T13:18:29.779Z,97464.56
2023-01-17T13:23:42.878Z,97472.72
2023-01-17T13:29:13.783Z,97479.25
2023-01-17T13:34:33.342Z,97492.19
2023-01-17T13:39:34.849Z,97485.38
2023-01-17T13:44:37.414Z,97499.69
2023-01-17T13:49:38.918Z,97494.38
2023-01-17T13:55:03.355Z,97489.50
2023-01-17T14:00:21.652Z,97500.88
2023-01-17T14:05:38.531Z,97502.00
2023-01-17T14:10:47.975Z,97506.16
2023-01-17T14:15:50.446Z,97509.41
2023-01-17T14:21:12.052Z,97517.28
2023-01-17T14:26:23.443Z,97510.06
2023-01-17T14:31:25.261Z,97496.25
2023-01-17T14:36:32.784Z,97505.00
2023-01-17T14:41:34.415Z,97498.13
2023-01-17T14:46:36.195Z,97512.59
2023-01-17T14:51:38.956Z,97521.03
2023-01-17T14:56:40.586Z,97517.59
2023-01-17T15:02:06.256Z,97521.63
2023-01-17T15:07:15.217Z,97534.66
2023-01-17T15:12:17.037Z,97532.25
2023-01-17T15:17:26.049Z,97537.06
2023-01-17T15:22:29.729Z,97547.63
2023-01-17T15:27:31.991Z,97540.34
2023-01-17T15:32:33.840Z,97541.50
2023-01-17T15:37:36.994Z,97546.72
2023-01-17T15:42:39.036Z,97550.31
2023-01-17T15:47:40.721Z,97543.66
2023-01-17T15:52:50.270Z,97545.81
2023-01-17T15:57:52.143Z,97557.03
2023-01-17T16:02:58.895Z,97553.88
2023-01-17T16:08:04.186Z,97542.88
2023-01-17T16:13:07.517Z,97547.66
2023-01-17T16:18:17.988Z,97546.09
2023-01-17T16:23:19.563Z,97558.16
2023-01-17T16:28:21.161Z,97542.41
2023-01-17T16:33:22.810Z,97542.44
2023-01-17T16:38:24.429Z,97543.13
2023-01-17T16:43:26.083Z,97544.09
2023-01-17T16:48:27.731Z,97545.81
2023-01-17T16:53:29.325Z,97532.19
2023-01-17T16:58:30.895Z,97528.38
2023-01-17T17:03:32.491Z,97528.97
2023-01-17T17:08:36.021Z,97527.16
2023-01-17T17:13:37.613Z,97523.31
2023-01-17T17:18:39.565Z,97524.53
2023-01-17T17:23:41.440Z,97516.66
2023-01-17T17:28:43.110Z,97513.28
2023-01-17T17:33:44.725Z,97518.69
2023-01-17T17:38:53.012Z,97542.88
2023-01-17T17:43:55.290Z,97544.44
2023-01-17T17:48:57.842Z,97543.00
2023-01-17T17:54:02.042Z,97540.38
2023-01-17T17:59:05.347Z,97546.13
2023-01-17T18:04:07.822Z,97549.41
2023-01-17T18:09:10.917Z,97551.31
2023-01-17T18:14:15.641Z,97550.88
2023-01-17T18:19:22.250Z,97547.97
2023-01-17T18:24:24.771Z,97548.78
2023-01-17T18:29:27.861Z,97545.16
2023-01-17T18:34:29.626Z,97548.31
2023-01-17T18:39:31.390Z,97553.16
2023-01-17T18:44:33.047Z,97547.72
2023-01-17T18:49:34.998Z,97560.31
2023-01-17T18:54:36.671Z,97568.88
2023-01-17T18:59:38.237Z,97555.06
2023-01-17T19:04:39.864Z,97571.66
2023-01-17T19:09:41.495Z,97568.50
2023-01-17T19:14:43.146Z,97561.78
2023-01-17T19:19:45.276Z,97569.34
2023-01-17T19:24:46.994Z,97575.22
2023-01-17T19:29:48.958Z,97581.41
2023-01-17T19:34:50.561Z,97578.41
2023-01-17T19:39:52.127Z,97584.66
2023-01-17T19:44:53.663Z,97583.88
2023-01-17T19:49:55.210Z,97594.31
2023-01-17T19:54:56.835Z,97589.19
2023-01-17T19:59:58.403Z,97594.00
2023-01-17T20:05:00.243Z,97593.63
2023-01-17T20:10:01.977Z,97597.72
2023-01-17T20:15:04.846Z,97609.25
2023-01-17T20:20:07.453Z,97631.19
2023-01-17T20:25:10.047Z,97634.34
2023-01-17T20:30:20.269Z,97622.31
2023-01-17T20:35:22.721Z,97636.72
2023-01-17T20:40:24.304Z,97635.69
2023-01-17T20:45:25.885Z,97641.47
2023-01-17T20:50:27.548Z,97649.25
2023-01-17T20:55:34.192Z,97648.25
2023-01-17T21:00:37.865Z,97644.66
2023-01-17T21:05:39.506Z,97649.59
2023-01-17T21:10:48.266Z,97641.34
2023-01-17T21:15:50.829Z,97635.06
2023-01-17T21:20:52.557Z,97642.16
2023-01-17T21:25:56.125Z,97643.16
2023-01-17T21:30:58.178Z,97644.97
2023-01-17T21:36:08.402Z,97638.34
2023-01-17T21:41:10.047Z,97627.94
2023-01-17T21:46:11.702Z,97632.41
2023-01-17T21:51:13.496Z,97631.09
2023-01-17T21:56:35.586Z,97635.72
2023-01-17T22:01:37.299Z,97623.81
2023-01-17T22:06:39.347Z,97619.22
2023-01-17T22:11:40.908Z,97614.91
2023-01-17T22:16:42.539Z,97609.97
2023-01-17T22:21:44.073Z,97595.44
2023-01-17T22:26:45.658Z,97595.13
2023-01-17T22:31:47.842Z,97593.81
2023-01-17T22:36:49.955Z,97587.72
2023-01-17T22:41:51.792Z,97584.56
2023-01-17T22:46:53.446Z,97583.91
2023-01-17T22:51:55.272Z,97581.41
2023-01-17T22:56:56.887Z,97573.63
2023-01-17T23:01:59.483Z,97558.56
2023-01-17T23:07:01.412Z,97553.19
2023-01-17T23:12:03.063Z,97551.19
2023-01-17T23:17:23.511Z,97533.16
2023-01-17T23:22:27.071Z,97522.44
2023-01-17T23:27:53.052Z,97526.41
2023-01-17T23:32:55.010Z,97534.50
2023-01-17T23:38:15.543Z,97543.41
2023-01-17T23:43:22.826Z,97537.28
2023-01-17T23:48:27.815Z,97540.81
2023-01-17T23:53:29.372Z,97530.00
2023-01-17T23:58:30.931Z,97547.69
